createdAt,value
2022-09-02T00:01:25.412Z,36.65
2022-09-02T00:03:55.885Z,36.64
2022-09-02T00:06:22.542Z,36.63
2022-09-02T00:08:49.446Z,36.59
2022-09-02T00:11:20.013Z,36.85
2022-09-02T00:13:47.224Z,37.69
2022-09-02T00:16:14.446Z,37.17
2022-09-02T00:18:44.865Z,37.30
2022-09-02T00:21:14.227Z,37.01
2022-09-02T00:23:41.998Z,37.36
2022-09-02T00:26:09.187Z,37.11
2022-09-02T00:28:35.869Z,37.04
2022-09-02T00:31:02.735Z,37.33
2022-09-02T00:33:29.635Z,36.27
2022-09-02T00:35:59.177Z,36.42
2022-09-02T00:38:25.647Z,36.21
2022-09-02T00:40:52.167Z,36.21
2022-09-02T00:43:37.563Z,36.37
2022-09-02T00:46:04.177Z,36.24
2022-09-02T00:48:31.485Z,35.91
2022-09-02T00:50:58.064Z,36.43
2022-09-02T00:53:26.180Z,36.09
2022-09-02T00:55:52.747Z,36.21
2022-09-02T00:58:22.484Z,36.34
2022-09-02T01:00:56.557Z,36.34
2022-09-02T01:03:26.970Z,36.56
2022-09-02T01:05:55.866Z,36.19
2022-09-02T01:08:45.770Z,36.00
2022-09-02T01:11:12.826Z,36.46
2022-09-02T01:13:42.984Z,36.35
2022-09-02T01:16:15.403Z,36.44
2022-09-02T01:18:47.082Z,36.69
2022-09-02T01:21:14.678Z,36.71
2022-09-02T01:23:41.301Z,36.89
2022-09-02T01:26:09.235Z,36.83
2022-09-02T01:28:35.795Z,36.69
2022-09-02T01:31:02.408Z,36.70
2022-09-02T01:33:29.421Z,37.50
2022-09-02T01:35:58.513Z,37.02
2022-09-02T01:38:25.523Z,37.21
2022-09-02T01:40:52.657Z,37.25
2022-09-02T01:43:23.323Z,37.56
2022-09-02T01:45:54.234Z,37.54
2022-09-02T01:48:21.702Z,37.27
2022-09-02T01:50:56.247Z,37.39
2022-09-02T01:53:23.269Z,37.29
2022-09-02T01:55:49.860Z,37.98
2022-09-02T01:58:16.551Z,37.42
2022-09-02T02:00:43.283Z,37.73
2022-09-02T02:03:09.802Z,37.93
2022-09-02T02:05:36.820Z,37.73
2022-09-02T02:08:03.854Z,37.95
2022-09-02T02:10:30.653Z,37.69
2022-09-02T02:12:57.033Z,38.23
2022-09-02T02:17:49.285Z,38.47
2022-09-02T02:20:18.008Z,38.67
2022-09-02T02:22:44.916Z,38.93
2022-09-02T02:25:12.213Z,38.96
2022-09-02T02:27:39.119Z,40.82
2022-09-02T02:30:12.375Z,40.30
2022-09-02T02:32:39.116Z,40.63
2022-09-02T02:35:06.574Z,40.34
2022-09-02T02:37:33.045Z,40.02
2022-09-02T02:39:59.463Z,39.97
2022-09-02T02:42:26.104Z,40.74
2022-09-02T02:44:52.532Z,40.88
2022-09-02T02:47:19.218Z,40.48
2022-09-02T02:49:45.823Z,40.41
2022-09-02T02:52:12.915Z,40.89
2022-09-02T02:54:40.604Z,41.00
2022-09-02T02:57:08.714Z,41.16
2022-09-02T02:59:36.915Z,39.35
2022-09-02T03:02:05.285Z,40.14
2022-09-02T03:04:32.148Z,40.79
2022-09-02T03:06:58.545Z,39.80
2022-09-02T03:09:25.542Z,40.21
2022-09-02T03:11:51.995Z,40.36
2022-09-02T03:14:18.939Z,40.63
2022-09-02T03:16:45.365Z,39.34
2022-09-02T03:19:14.125Z,39.28
2022-09-02T03:21:42.312Z,39.55
2022-09-02T03:24:10.385Z,40.12
2022-09-02T03:26:37.007Z,39.34
2022-09-02T03:29:04.619Z,39.59
2022-09-02T03:31:31.130Z,39.78
2022-09-02T03:33:57.776Z,40.48
2022-09-02T03:36:38.577Z,41.16
2022-09-02T03:39:10.046Z,40.57
2022-09-02T03:41:37.112Z,39.32
2022-09-02T03:44:03.819Z,39.79
2022-09-02T03:46:30.340Z,39.73
2022-09-02T03:48:56.837Z,39.46
2022-09-02T03:51:24.105Z,39.13
2022-09-02T03:53:50.828Z,39.23
2022-09-02T03:56:18.041Z,39.30
2022-09-02T03:58:46.194Z,39.88
2022-09-02T04:01:15.634Z,39.61
2022-09-02T04:03:42.796Z,39.20
2022-09-02T04:06:11.914Z,39.78
2022-09-02T04:08:44.897Z,39.54
2022-09-02T04:11:17.783Z,39.38
2022-09-02T04:13:46.658Z,39.89
2022-09-02T04:16:16.918Z,39.83
2022-09-02T04:18:43.622Z,40.77
2022-09-02T04:21:25.863Z,40.12
2022-09-02T04:23:52.702Z,40.63
2022-09-02T04:26:20.714Z,40.33
2022-09-02T04:28:49.453Z,40.55
2022-09-02T04:31:19.142Z,40.27
2022-09-02T04:33:46.362Z,40.40
2022-09-02T04:36:16.072Z,40.64
2022-09-02T04:38:43.164Z,41.02
2022-09-02T04:41:16.344Z,41.98
2022-09-02T04:43:42.932Z,41.75
2022-09-02T04:46:12.469Z,41.52
2022-09-02T04:48:39.630Z,41.98
2022-09-02T04:51:09.122Z,42.25
2022-09-02T04:53:36.075Z,42.98
2022-09-02T04:56:07.959Z,43.12
2022-09-02T04:58:35.580Z,43.58
2022-09-02T05:01:26.933Z,43.72
2022-09-02T05:03:54.238Z,43.84
2022-09-02T05:09:14.291Z,44.06
2022-09-02T05:11:40.860Z,44.01
2022-09-02T05:14:07.951Z,43.59
2022-09-02T05:16:38.170Z,43.91
2022-09-02T05:19:11.383Z,43.55
2022-09-02T05:21:50.694Z,44.85
2022-09-02T05:24:17.910Z,44.82
2022-09-02T05:26:44.789Z,45.02
2022-09-02T05:29:13.024Z,45.14
2022-09-02T05:31:41.720Z,44.89
2022-09-02T05:34:08.482Z,45.71
2022-09-02T05:36:35.191Z,45.43
2022-09-02T05:39:02.260Z,45.44
2022-09-02T05:41:34.269Z,45.28
2022-09-02T05:44:03.599Z,44.78
2022-09-02T05:46:32.066Z,45.09
2022-09-02T05:49:07.674Z,44.89
2022-09-02T05:51:59.181Z,44.18
2022-09-02T05:54:30.054Z,43.48
2022-09-02T05:57:01.579Z,42.83
2022-09-02T05:59:38.275Z,43.07
2022-09-02T06:02:07.997Z,41.98
2022-09-02T06:04:44.644Z,42.01
2022-09-02T06:07:14.149Z,41.69
2022-09-02T06:09:41.184Z,42.20
2022-09-02T06:12:11.495Z,41.95
2022-09-02T06:14:38.171Z,42.30
2022-09-02T06:17:05.561Z,41.82
2022-09-02T06:19:33.682Z,41.46
2022-09-02T06:22:07.430Z,40.90
2022-09-02T06:24:39.777Z,40.84
2022-09-02T06:27:07.375Z,41.30
2022-09-02T06:29:33.984Z,41.80
2022-09-02T06:32:00.597Z,40.51
2022-09-02T06:34:29.390Z,41.08
2022-09-02T06:36:59.043Z,40.33
2022-09-02T06:39:26.035Z,40.40
2022-09-02T06:41:54.527Z,39.77
2022-09-02T06:44:21.857Z,40.89
2022-09-02T06:46:57.162Z,39.72
2022-09-02T06:49:25.311Z,40.38
2022-09-02T06:51:56.433Z,39.94
2022-09-02T06:54:23.938Z,39.89
2022-09-02T06:56:52.209Z,39.38
2022-09-02T06:59:23.421Z,39.53
2022-09-02T07:01:53.474Z,39.33
2022-09-02T07:04:42.652Z,39.36
2022-09-02T07:07:09.334Z,39.29
2022-09-02T07:09:36.060Z,39.42
2022-09-02T07:12:06.091Z,39.01
2022-09-02T07:14:47.208Z,38.92
2022-09-02T07:17:21.999Z,39.40
2022-09-02T07:19:49.590Z,39.15
2022-09-02T07:22:18.044Z,38.83
2022-09-02T07:24:45.781Z,39.29
2022-09-02T07:30:49.655Z,38.79
2022-09-02T07:33:17.583Z,38.90
2022-09-02T07:35:46.010Z,39.35
2022-09-02T07:38:12.940Z,39.38
2022-09-02T07:40:44.308Z,38.67
2022-09-02T07:43:11.609Z,38.88
2022-09-02T07:45:38.799Z,39.17
2022-09-02T07:48:12.012Z,39.03
2022-09-02T07:50:41.306Z,39.17
2022-09-02T07:53:08.544Z,38.89
2022-09-02T07:55:36.733Z,38.95
2022-09-02T07:58:09.088Z,38.85
2022-09-02T08:00:39.243Z,38.76
2022-09-02T08:03:05.989Z,38.84
2022-09-02T08:05:35.653Z,38.56
2022-09-02T08:08:03.162Z,39.03
2022-09-02T08:10:30.921Z,39.04
2022-09-02T08:13:00.828Z,38.96
2022-09-02T08:15:28.979Z,38.38
2022-09-02T08:17:57.291Z,38.98
2022-09-02T08:20:24.209Z,38.52
2022-09-02T08:22:59.309Z,38.80
2022-09-02T08:25:37.534Z,38.82
2022-09-02T08:28:04.705Z,38.86
2022-09-02T08:30:31.504Z,38.87
2022-09-02T08:32:58.016Z,38.76
2022-09-02T08:35:24.603Z,38.64
2022-09-02T08:37:54.075Z,38.52
2022-09-02T08:40:23.600Z,38.30
2022-09-02T08:42:55.660Z,38.05
2022-09-02T08:45:44.753Z,38.31
2022-09-02T08:48:27.806Z,38.06
2022-09-02T08:51:03.164Z,37.68
2022-09-02T08:53:36.638Z,37.83
2022-09-02T08:56:08.780Z,37.68
2022-09-02T08:59:08.152Z,37.25
2022-09-02T09:02:01.060Z,37.68
2022-09-02T09:05:06.978Z,36.63
2022-09-02T09:07:46.949Z,36.51
2022-09-02T09:10:22.840Z,36.31
2022-09-02T09:13:41.537Z,36.35
2022-09-02T09:16:21.479Z,35.98
2022-09-02T09:19:15.231Z,35.98
2022-09-02T09:21:46.152Z,35.36
2022-09-02T09:24:48.573Z,35.07
2022-09-02T09:27:21.007Z,35.35
2022-09-02T09:29:49.447Z,34.73
2022-09-02T09:32:29.064Z,34.73
2022-09-02T09:35:07.749Z,34.26
2022-09-02T09:37:48.381Z,33.95
2022-09-02T09:40:21.184Z,33.39
2022-09-02T09:43:56.112Z,33.54
2022-09-02T09:46:17.776Z,34.24
2022-09-02T09:48:49.922Z,33.47
2022-09-02T09:51:16.497Z,33.13
2022-09-02T09:53:44.028Z,33.25
2022-09-02T09:56:13.496Z,33.40
2022-09-02T09:58:39.922Z,32.33
2022-09-02T10:01:22.844Z,32.27
2022-09-02T10:04:32.373Z,32.17
2022-09-02T10:06:55.744Z,32.17
2022-09-02T10:09:32.851Z,32.09
2022-09-02T10:12:12.714Z,32.33
2022-09-02T10:14:44.238Z,31.82
2022-09-02T10:17:33.771Z,31.62
2022-09-02T10:20:07.422Z,31.84
2022-09-02T10:23:16.405Z,31.13
2022-09-02T10:25:52.023Z,30.93
2022-09-02T10:28:29.623Z,30.45
2022-09-02T10:31:11.427Z,30.44
2022-09-02T10:34:25.002Z,31.06
2022-09-02T10:37:03.689Z,29.75
2022-09-02T10:39:55.942Z,29.54
2022-09-02T10:42:30.102Z,29.38
2022-09-02T10:45:09.715Z,29.52
2022-09-02T10:47:38.798Z,29.12
2022-09-02T10:50:17.970Z,28.71
2022-09-02T10:53:20.842Z,28.04
2022-09-02T10:55:59.582Z,27.22
2022-09-02T10:58:55.269Z,27.97
2022-09-02T11:01:28.224Z,27.75
2022-09-02T11:03:57.719Z,27.31
2022-09-02T11:06:58.624Z,26.85
2022-09-02T11:09:39.837Z,26.74
2022-09-02T11:12:09.393Z,25.94
2022-09-02T11:14:58.484Z,25.25
2022-09-02T11:17:44.956Z,25.81
2022-09-02T11:20:34.424Z,24.96
2022-09-02T11:23:26.905Z,25.21
2022-09-02T11:26:09.554Z,24.54
2022-09-02T11:28:42.391Z,24.47
2022-09-02T11:32:06.171Z,24.62
2022-09-02T11:34:40.359Z,23.75
2022-09-02T11:37:10.773Z,23.36
2022-09-02T11:40:06.659Z,23.00
2022-09-02T11:42:52.681Z,23.41
2022-09-02T11:45:24.904Z,23.04
2022-09-02T11:48:20.488Z,23.21
2022-09-02T11:51:02.418Z,23.09
2022-09-02T11:53:30.959Z,23.56
2022-09-02T11:56:03.222Z,23.00
2022-09-02T11:58:39.240Z,23.01
2022-09-02T12:01:25.030Z,22.75
2022-09-02T12:07:09.920Z,22.74
2022-09-02T12:09:50.430Z,22.39
2022-09-02T12:12:36.293Z,22.64
2022-09-02T12:15:03.797Z,22.32
2022-09-02T12:17:53.890Z,22.51
2022-09-02T12:20:39.420Z,21.78
2022-09-02T12:23:08.151Z,22.42
2022-09-02T12:25:49.192Z,22.32
2022-09-02T12:28:27.672Z,21.58
2022-09-02T12:31:08.601Z,22.07
2022-09-02T12:33:37.792Z,21.50
2022-09-02T12:36:06.724Z,21.46
2022-09-02T12:38:40.954Z,21.64
2022-09-02T12:41:15.226Z,21.77
2022-09-02T12:43:53.709Z,21.72
2022-09-02T12:46:54.677Z,21.69
2022-09-02T12:49:38.636Z,21.27
2022-09-02T12:52:09.052Z,20.65
2022-09-02T12:54:38.460Z,21.58
2022-09-02T12:57:06.657Z,21.14
2022-09-02T12:59:35.734Z,21.38
2022-09-02T13:02:14.492Z,20.84
2022-09-02T13:04:59.640Z,21.70
2022-09-02T13:08:02.453Z,20.84
2022-09-02T13:11:19.778Z,21.18
2022-09-02T13:14:13.696Z,20.64
2022-09-02T13:17:36.362Z,20.91
2022-09-02T13:20:22.724Z,21.08
2022-09-02T13:22:52.085Z,20.98
2022-09-02T13:25:46.185Z,20.83
2022-09-02T13:28:51.938Z,20.16
2022-09-02T13:31:27.567Z,19.79
2022-09-02T13:34:05.408Z,20.48
2022-09-02T13:36:37.580Z,20.67
2022-09-02T13:39:30.750Z,20.81
2022-09-02T13:41:57.428Z,20.29
2022-09-02T13:44:29.447Z,20.66
2022-09-02T13:47:04.841Z,20.91
2022-09-02T13:49:40.723Z,21.17
2022-09-02T13:52:17.007Z,20.62
2022-09-02T13:54:46.804Z,20.20
2022-09-02T13:57:25.974Z,19.42
2022-09-02T13:59:56.026Z,20.08
2022-09-02T14:02:32.232Z,20.43
2022-09-02T14:05:04.714Z,20.06
2022-09-02T14:07:37.673Z,20.15
2022-09-02T14:10:08.759Z,19.99
2022-09-02T14:12:37.750Z,20.81
2022-09-02T14:15:12.667Z,19.65
2022-09-02T14:17:39.094Z,20.15
2022-09-02T14:20:22.467Z,20.43
2022-09-02T14:22:57.574Z,20.42
2022-09-02T14:25:27.545Z,19.78
2022-09-02T14:28:00.609Z,20.11
2022-09-02T14:30:37.593Z,20.03
2022-09-02T14:33:22.268Z,19.94
2022-09-02T14:36:07.261Z,19.59
2022-09-02T14:38:44.817Z,19.60
2022-09-02T14:41:12.361Z,19.11
2022-09-02T14:43:45.976Z,19.38
2022-09-02T14:46:31.506Z,19.15
2022-09-02T14:49:04.422Z,19.22
2022-09-02T14:51:46.332Z,19.23
2022-09-02T14:54:32.822Z,19.45
2022-09-02T14:56:59.349Z,19.83
2022-09-02T14:59:25.844Z,19.36
2022-09-02T15:01:54.611Z,19.73
2022-09-02T15:04:21.126Z,19.85
2022-09-02T15:06:48.353Z,20.06
2022-09-02T15:09:16.491Z,19.96
2022-09-02T15:11:48.070Z,20.16
2022-09-02T15:14:14.578Z,19.88
2022-09-02T15:16:41.144Z,20.31
2022-09-02T15:19:07.673Z,19.67
2022-09-02T15:21:34.134Z,20.00
2022-09-02T15:24:00.594Z,20.18
2022-09-02T15:26:27.102Z,20.18
2022-09-02T15:28:56.051Z,19.84
2022-09-02T15:31:22.723Z,19.84
2022-09-02T15:33:51.559Z,20.08
2022-09-02T15:36:18.907Z,19.91
2022-09-02T15:38:45.416Z,20.01
2022-09-02T15:41:17.735Z,19.97
2022-09-02T15:43:45.978Z,19.83
2022-09-02T15:46:27.764Z,20.03
2022-09-02T15:49:00.218Z,19.95
2022-09-02T15:51:28.712Z,20.17
2022-09-02T15:54:03.920Z,19.94
2022-09-02T15:56:32.093Z,20.08
2022-09-02T15:59:00.998Z,19.75
2022-09-02T16:01:30.042Z,19.98
2022-09-02T16:03:57.819Z,20.09
2022-09-02T16:06:25.074Z,20.42
2022-09-02T16:08:51.892Z,20.18
2022-09-02T16:11:18.984Z,20.00
2022-09-02T16:13:45.506Z,20.17
2022-09-02T16:16:16.233Z,20.16
2022-09-02T16:18:44.314Z,19.93
2022-09-02T16:21:12.627Z,20.01
2022-09-02T16:23:39.480Z,19.62
2022-09-02T16:26:32.310Z,19.98
2022-09-02T16:29:01.342Z,20.38
2022-09-02T16:31:30.344Z,20.30
2022-09-02T16:34:01.945Z,20.53
2022-09-02T16:36:33.077Z,20.83
2022-09-02T16:39:00.989Z,20.84
2022-09-02T16:41:36.446Z,20.98
2022-09-02T16:44:05.593Z,20.84
2022-09-02T16:46:33.633Z,20.30
2022-09-02T16:49:00.221Z,20.79
2022-09-02T16:51:27.721Z,20.65
2022-09-02T16:54:00.261Z,20.97
2022-09-02T16:56:27.713Z,21.02
2022-09-02T16:58:54.706Z,20.92
2022-09-02T17:01:23.152Z,21.16
2022-09-02T17:03:50.679Z,20.76
2022-09-02T17:06:17.782Z,21.02
2022-09-02T17:08:44.331Z,21.07
2022-09-02T17:11:28.998Z,20.84
2022-09-02T17:14:01.574Z,21.02
2022-09-02T17:16:31.382Z,20.78
2022-09-02T17:18:58.285Z,20.96
2022-09-02T17:21:29.947Z,20.92
2022-09-02T17:23:56.578Z,21.12
2022-09-02T17:26:27.939Z,21.13
2022-09-02T17:28:57.510Z,20.67
2022-09-02T17:31:30.392Z,20.75
2022-09-02T17:33:59.548Z,21.16
2022-09-02T17:36:28.747Z,21.41
2022-09-02T17:38:57.077Z,21.22
2022-09-02T17:41:43.763Z,21.38
2022-09-02T17:44:11.542Z,21.67
2022-09-02T17:46:38.228Z,21.90
2022-09-02T17:49:18.783Z,21.72
2022-09-02T17:51:46.571Z,21.95
2022-09-02T17:54:14.598Z,21.97
2022-09-02T17:56:56.309Z,21.75
2022-09-02T18:00:02.426Z,21.57
2022-09-02T18:02:48.570Z,22.31
2022-09-02T18:05:36.789Z,22.17
2022-09-02T18:08:15.310Z,21.88
2022-09-02T18:10:58.295Z,22.23
2022-09-02T18:13:34.055Z,22.48
2022-09-02T18:16:23.279Z,22.72
2022-09-02T18:19:23.204Z,22.87
2022-09-02T18:21:58.746Z,22.31
2022-09-02T18:24:55.198Z,22.83
2022-09-02T18:27:58.240Z,23.08
2022-09-02T18:30:29.309Z,23.30
2022-09-02T18:33:17.501Z,23.34
2022-09-02T18:36:10.220Z,23.15
2022-09-02T18:38:40.869Z,23.45
2022-09-02T18:41:22.930Z,23.74
2022-09-02T18:44:10.105Z,24.39
2022-09-02T18:46:52.802Z,25.10
2022-09-02T18:49:22.693Z,24.80
2022-09-02T18:51:54.747Z,24.15
2022-09-02T18:54:25.185Z,24.29
2022-09-02T18:56:57.388Z,24.07
2022-09-02T18:59:49.426Z,24.01
2022-09-02T19:02:23.724Z,24.79
2022-09-02T19:04:50.512Z,24.57
2022-09-02T19:07:38.791Z,25.56
2022-09-02T19:10:06.222Z,25.04
2022-09-02T19:12:35.969Z,25.01
2022-09-02T19:15:06.327Z,25.03
2022-09-02T19:17:32.725Z,25.00
2022-09-02T19:19:59.122Z,24.96
2022-09-02T19:22:28.199Z,24.78
2022-09-02T19:25:07.495Z,25.02
2022-09-02T19:27:37.501Z,25.34
2022-09-02T19:30:07.977Z,25.57
2022-09-02T19:32:36.624Z,25.71
2022-09-02T19:35:09.923Z,25.67
2022-09-02T19:37:44.616Z,25.61
2022-09-02T19:40:12.329Z,25.71
2022-09-02T19:42:38.845Z,25.87
2022-09-02T19:45:05.666Z,26.00
2022-09-02T19:50:20.619Z,25.98
2022-09-02T19:52:49.657Z,25.92
2022-09-02T19:55:18.231Z,25.79
2022-09-02T19:57:45.882Z,25.83
2022-09-02T20:00:13.559Z,25.95
2022-09-02T20:02:40.773Z,26.22
2022-09-02T20:05:11.458Z,25.99
2022-09-02T20:07:38.638Z,26.22
2022-09-02T20:10:07.122Z,26.07
2022-09-02T20:12:35.835Z,26.30
2022-09-02T20:15:04.894Z,26.39
2022-09-02T20:17:31.757Z,26.54
2022-09-02T20:20:02.625Z,26.53
2022-09-02T20:22:31.059Z,26.46
2022-09-02T20:24:58.329Z,26.39
2022-09-02T20:27:40.067Z,26.64
2022-09-02T20:30:16.167Z,26.66
2022-09-02T20:33:14.121Z,26.29
2022-09-02T20:35:46.555Z,27.26
2022-09-02T20:38:25.114Z,27.36
2022-09-02T20:41:02.346Z,27.68
2022-09-02T20:44:07.308Z,28.15
2022-09-02T20:46:59.056Z,28.54
2022-09-02T20:49:43.636Z,27.57
2022-09-02T20:52:14.824Z,28.64
2022-09-02T20:54:51.777Z,28.18
2022-09-02T20:57:39.667Z,28.25
2022-09-02T21:00:08.270Z,28.33
2022-09-02T21:02:42.503Z,28.57
2022-09-02T21:05:22.506Z,29.60
2022-09-02T21:07:58.007Z,29.19
2022-09-02T21:10:34.346Z,29.35
2022-09-02T21:13:10.830Z,30.06
2022-09-02T21:15:47.773Z,30.05
2022-09-02T21:18:32.913Z,30.89
2022-09-02T21:21:04.646Z,30.59
2022-09-02T21:23:41.281Z,31.07
2022-09-02T21:26:23.380Z,31.33
2022-09-02T21:28:58.706Z,31.27
2022-09-02T21:31:37.400Z,31.83
2022-09-02T21:34:38.908Z,32.10
2022-09-02T21:37:09.397Z,32.52
2022-09-02T21:39:41.619Z,33.07
2022-09-02T21:42:13.927Z,33.27
2022-09-02T21:44:59.154Z,33.01
2022-09-02T21:47:40.109Z,33.35
2022-09-02T21:50:47.736Z,33.33
2022-09-02T21:53:29.435Z,33.58
2022-09-02T21:56:24.244Z,33.79
2022-09-02T21:59:05.007Z,33.32
2022-09-02T22:01:44.981Z,33.43
2022-09-02T22:04:20.598Z,33.27
2022-09-02T22:06:52.122Z,33.68
2022-09-02T22:09:27.692Z,33.28
2022-09-02T22:12:01.898Z,34.13
2022-09-02T22:14:40.629Z,34.52
2022-09-02T22:17:51.296Z,34.62
2022-09-02T22:20:22.041Z,34.56
2022-09-02T22:22:54.600Z,34.23
2022-09-02T22:25:22.555Z,34.70
2022-09-02T22:28:10.477Z,34.60
2022-09-02T22:30:41.259Z,35.14
2022-09-02T22:33:12.004Z,34.33
2022-09-02T22:35:54.227Z,34.76
2022-09-02T22:38:30.756Z,35.02
2022-09-02T22:41:20.160Z,35.19
2022-09-02T22:43:53.939Z,35.14
2022-09-02T22:46:45.975Z,34.90
2022-09-02T22:49:34.781Z,35.19
2022-09-02T22:52:44.019Z,34.87
2022-09-02T22:55:18.052Z,35.08
2022-09-02T22:58:08.598Z,35.45
2022-09-02T23:00:46.775Z,35.62
2022-09-02T23:03:34.086Z,35.29
2022-09-02T23:06:17.329Z,35.29
2022-09-02T23:08:44.386Z,34.76
2022-09-02T23:11:28.152Z,35.85
2022-09-02T23:14:06.947Z,36.31
2022-09-02T23:17:18.266Z,36.66
2022-09-02T23:20:19.776Z,36.78
2022-09-02T23:22:49.035Z,37.35
2022-09-02T23:25:19.045Z,36.84
2022-09-02T23:28:47.351Z,36.15
2022-09-02T23:31:30.610Z,36.00
2022-09-02T23:34:13.660Z,35.88
2022-09-02T23:36:55.075Z,36.68
2022-09-02T23:40:12.428Z,36.46
2022-09-02T23:45:48.944Z,36.77
2022-09-02T23:48:28.889Z,37.46
2022-09-02T23:51:12.996Z,37.31
2022-09-02T23:53:44.536Z,37.40
2022-09-02T23:56:49.387Z,37.12
2022-09-02T23:59:53.306Z,37.40
